»·PEaware :: N1254D KRNO-KSFO

N1254D :: KRNO-KSFO

FLIGHT INFORMATION

Flight Status: Arrived
Operator: Privately registered:
United States
More flights under this callsign
Pilot: Scott M. (2887)
Aircraft: CESSNA 172 SKYHAWK
(C172)
More flights by this aircraft type
Origin: KRNO Reno/Tahoe Intl
United States
Destination: KSFO San Francisco Intl
United States
More flights between these airports :: More routes between these airports
Route: +RENO9 MOD CEDES
File this flight plan on PilotEdge
Remarks:
Altitude:
(Current/Filed)
12,000ft
Speed:
(Current/Filed)
108kts
Departed: 30-Dec-17 10:20 AM
Arrived: 30-Dec-17 12:50 PM
Distance/Time
Traveled:
166nm/2:30
Distance/Time
To Go:
Arrived

Flight Plot

Page will automatically refresh every two minutes.

Flight plan parsing failed; only flown route is shown


Map Options




Map Legend


Flown Route
Filed Route
Departure Airport
Arrival Airport
Navaid (VOR, NDB)
Fix

Horizontal Profiles

Position Reports

Time Latitude Longitude Heading Altitude Ground
Speed
30-Dec-17 09:35 39.504297 -119.764908 179 4418ft 0kts
30-Dec-17 09:36 39.504297 -119.764908 179 4418ft 0kts
30-Dec-17 09:37 39.504297 -119.764908 179 4418ft 0kts
30-Dec-17 09:38 39.504297 -119.764908 179 4418ft 0kts
30-Dec-17 09:39 39.504297 -119.764908 179 4418ft 0kts
30-Dec-17 09:40 39.504297 -119.764908 179 4418ft 0kts
30-Dec-17 09:41 39.504297 -119.764908 179 4418ft 0kts
30-Dec-17 09:42 39.504297 -119.764908 179 4418ft 0kts
30-Dec-17 09:43 39.504297 -119.764908 179 4418ft 0kts
30-Dec-17 09:44 39.504297 -119.764908 179 4418ft 0kts
30-Dec-17 09:45 39.504297 -119.764908 179 4418ft 0kts
30-Dec-17 09:46 39.504297 -119.764908 179 4418ft 0kts
30-Dec-17 09:47 39.504297 -119.764908 179 4418ft 0kts
30-Dec-17 09:48 39.504297 -119.764908 179 4418ft 0kts
30-Dec-17 09:49 39.504297 -119.764908 179 4418ft 0kts
30-Dec-17 09:50 39.504297 -119.764908 179 4418ft 0kts
30-Dec-17 09:51 39.504297 -119.764908 179 4418ft 0kts
30-Dec-17 09:52 39.504297 -119.764908 179 4418ft 0kts
30-Dec-17 09:53 39.504297 -119.764908 179 4418ft 0kts
30-Dec-17 09:54 39.504297 -119.764908 179 4418ft 0kts
30-Dec-17 09:55 39.504297 -119.764908 179 4418ft 0kts
30-Dec-17 09:56 39.504297 -119.764908 179 4418ft 0kts
30-Dec-17 09:57 39.504297 -119.764908 179 4418ft 0kts
30-Dec-17 09:58 39.504297 -119.764908 179 4418ft 0kts
30-Dec-17 09:59 39.504297 -119.764908 179 4418ft 0kts
30-Dec-17 10:00 39.502775 -119.764903 179 4418ft 0kts
30-Dec-17 10:01 39.502775 -119.764903 179 4418ft 0kts
30-Dec-17 10:02 39.502775 -119.764903 179 4418ft 0kts
30-Dec-17 10:03 39.502775 -119.764903 179 4418ft 0kts
30-Dec-17 10:04 39.502775 -119.764903 179 4418ft 0kts
30-Dec-17 10:05 39.502775 -119.764903 179 4418ft 0kts
30-Dec-17 10:06 39.502775 -119.764903 179 4418ft 0kts
30-Dec-17 10:07 39.502772 -119.764903 179 4418ft 0kts
30-Dec-17 10:08 39.502772 -119.764903 179 4418ft 0kts
30-Dec-17 10:09 39.502772 -119.764903 179 4418ft 0kts
30-Dec-17 10:10 39.502772 -119.764903 179 4418ft 0kts
30-Dec-17 10:11 39.502772 -119.764903 179 4418ft 0kts
30-Dec-17 10:12 39.502772 -119.764903 179 4418ft 0kts
30-Dec-17 10:13 39.502769 -119.764903 179 4418ft 0kts
30-Dec-17 10:14 39.502766 -119.764903 179 4418ft 0kts
30-Dec-17 10:15 39.502648 -119.764903 179 4418ft 5kts
30-Dec-17 10:16 39.502073 -119.765101 214 4418ft 0kts
30-Dec-17 10:17 39.502069 -119.765104 214 4418ft 0kts
30-Dec-17 10:18 39.501710 -119.765559 285 4418ft 4kts
30-Dec-17 10:19 39.503593 -119.765752 359 4418ft 15kts
30-Dec-17 10:20 39.507515 -119.765713 0 4418ft 4kts
30-Dec-17 10:21 39.509646 -119.765708 0 4418ft 10kts
30-Dec-17 10:22 39.512055 -119.765181 1 4418ft 13kts
30-Dec-17 10:23 39.513528 -119.765872 269 4418ft 0kts
30-Dec-17 10:24 39.513539 -119.765910 304 4418ft 0kts
30-Dec-17 10:25 39.513544 -119.766525 242 4418ft 6kts
30-Dec-17 10:26 39.502424 -119.766565 177 4602ft 67kts
30-Dec-17 10:27 39.483791 -119.765043 188 5144ft 66kts
30-Dec-17 10:28 39.463709 -119.757069 179 5541ft 82kts
30-Dec-17 10:29 39.439665 -119.748879 177 5980ft 88kts
30-Dec-17 10:30 39.415816 -119.749641 193 6454ft 84kts
30-Dec-17 10:31 39.393211 -119.753876 197 6921ft 80kts
30-Dec-17 10:32 39.371645 -119.760314 209 7376ft 72kts
30-Dec-17 10:33 39.353253 -119.767937 201 7868ft 69kts
30-Dec-17 10:34 39.331717 -119.770611 192 8419ft 70kts
30-Dec-17 10:35 39.314571 -119.768728 196 8778ft 59kts
30-Dec-17 10:36 39.297373 -119.768533 202 8984ft 64kts
30-Dec-17 10:37 39.277764 -119.769971 201 9154ft 77kts
30-Dec-17 10:38 39.255759 -119.770876 197 9398ft 79kts
30-Dec-17 10:39 39.232588 -119.769882 198 9593ft 84kts
30-Dec-17 10:40 39.209124 -119.769028 200 9814ft 84kts
30-Dec-17 10:41 39.183581 -119.770429 201 9900ft 101kts
30-Dec-17 10:42 39.154610 -119.772416 195 10091ft 106kts
30-Dec-17 10:43 39.123649 -119.772506 190 10260ft 112kts
30-Dec-17 10:44 39.098138 -119.767264 195 10668ft 83kts
30-Dec-17 10:45 39.076383 -119.764600 206 10869ft 74kts
30-Dec-17 10:46 39.064006 -119.770439 239 10985ft 55kts
30-Dec-17 10:47 39.043404 -119.773708 213 11073ft 79kts
30-Dec-17 10:48 39.021526 -119.777711 213 11234ft 77kts
30-Dec-17 10:49 39.012098 -119.789035 265 11395ft 41kts
30-Dec-17 10:50 39.000408 -119.799472 242 11516ft 51kts
30-Dec-17 10:51 38.992870 -119.808780 240 11596ft 54kts
30-Dec-17 10:52 38.978561 -119.819853 236 11675ft 62kts
30-Dec-17 10:53 38.964149 -119.832299 239 11781ft 62kts
30-Dec-17 10:54 38.949992 -119.845110 239 11888ft 62kts
30-Dec-17 10:55 38.935947 -119.857586 239 11989ft 60kts
30-Dec-17 10:56 38.921925 -119.870228 239 12016ft 64kts
30-Dec-17 10:57 38.907220 -119.884239 239 12012ft 66kts
30-Dec-17 10:58 38.892332 -119.898663 239 12012ft 67kts
30-Dec-17 10:59 38.877386 -119.913359 239 12013ft 68kts
30-Dec-17 11:00 38.862390 -119.928264 239 12013ft 68kts
30-Dec-17 11:01 38.847379 -119.943260 239 12013ft 68kts
30-Dec-17 11:02 38.832296 -119.958359 239 12012ft 69kts
30-Dec-17 11:03 38.817122 -119.973520 239 12012ft 69kts
30-Dec-17 11:04 38.801845 -119.988749 239 12012ft 69kts
30-Dec-17 11:05 38.786676 -120.003839 236 12020ft 67kts
30-Dec-17 11:06 38.772146 -120.018512 237 12016ft 65kts
30-Dec-17 11:07 38.758213 -120.032939 236 12019ft 63kts
30-Dec-17 11:08 38.744568 -120.047486 241 12014ft 65kts
30-Dec-17 11:09 38.730347 -120.062187 240 12020ft 67kts
30-Dec-17 11:10 38.715461 -120.077203 239 12018ft 68kts
30-Dec-17 11:11 38.700244 -120.092245 238 12018ft 69kts
30-Dec-17 11:12 38.687479 -120.104696 238 12017ft 69kts
30-Dec-17 11:13 38.669490 -120.122132 237 12010ft 70kts
30-Dec-17 11:14 38.653888 -120.137461 238 12003ft 70kts
30-Dec-17 11:15 38.640978 -120.150162 238 12004ft 70kts
30-Dec-17 11:16 38.622962 -120.167924 238 12002ft 70kts
30-Dec-17 11:17 38.613938 -120.186839 264 11986ft 84kts
30-Dec-17 11:18 38.624540 -120.205709 325 11999ft 79kts
30-Dec-17 11:19 38.615861 -120.217890 237 12002ft 70kts
30-Dec-17 11:20 38.604004 -120.233737 240 12010ft 67kts
30-Dec-17 11:21 38.589339 -120.249736 239 11996ft 70kts
30-Dec-17 11:22 38.574354 -120.265955 238 11989ft 70kts
30-Dec-17 11:23 38.559274 -120.282152 238 11988ft 70kts
30-Dec-17 11:24 38.545215 -120.298805 238 11991ft 70kts
30-Dec-17 11:25 38.529981 -120.314916 237 11989ft 71kts
30-Dec-17 11:26 38.515689 -120.329874 238 12066ft 66kts
30-Dec-17 11:27 38.500888 -120.345336 237 12063ft 70kts
30-Dec-17 11:28 38.485679 -120.361079 237 12062ft 70kts
30-Dec-17 11:29 38.470325 -120.376847 237 12062ft 71kts
30-Dec-17 11:30 38.454825 -120.392639 236 12062ft 71kts
30-Dec-17 11:31 38.439293 -120.408334 236 12062ft 71kts
30-Dec-17 11:32 38.423689 -120.423975 236 12061ft 71kts
30-Dec-17 11:33 38.408716 -120.440120 250 12063ft 65kts
30-Dec-17 11:34 38.392559 -120.455473 233 12049ft 74kts
30-Dec-17 11:35 38.375766 -120.470739 233 12041ft 74kts
30-Dec-17 11:36 38.359226 -120.486709 233 12028ft 74kts
30-Dec-17 11:37 38.342765 -120.502578 233 12028ft 74kts
30-Dec-17 11:38 38.326286 -120.518442 233 12028ft 74kts
30-Dec-17 11:39 38.307706 -120.531911 220 12032ft 80kts
30-Dec-17 11:40 38.285714 -120.540781 212 12032ft 85kts
30-Dec-17 11:41 38.262341 -120.547543 211 12032ft 86kts
30-Dec-17 11:42 38.239916 -120.555463 216 12031ft 83kts
30-Dec-17 11:43 38.219079 -120.566793 225 12030ft 79kts
30-Dec-17 11:44 38.200597 -120.581068 230 12030ft 76kts
30-Dec-17 11:45 38.183346 -120.596774 232 12028ft 76kts
30-Dec-17 11:46 38.165589 -120.612346 229 12027ft 78kts
30-Dec-17 11:47 38.146342 -120.626462 224 12026ft 81kts
30-Dec-17 11:48 38.125137 -120.639315 220 12020ft 86kts
30-Dec-17 11:49 38.102963 -120.651341 219 12019ft 87kts
30-Dec-17 11:50 38.080806 -120.663610 221 12019ft 86kts
30-Dec-17 11:51 38.059258 -120.676951 223 12019ft 85kts
30-Dec-17 11:52 38.038699 -120.691148 225 12020ft 83kts
30-Dec-17 11:53 38.018552 -120.705402 225 12025ft 81kts
30-Dec-17 11:54 37.998687 -120.719122 223 12006ft 80kts
30-Dec-17 11:55 37.978594 -120.731931 222 12006ft 81kts
30-Dec-17 11:56 37.958193 -120.744430 222 12008ft 82kts
30-Dec-17 11:57 37.937573 -120.757378 223 12009ft 82kts
30-Dec-17 11:58 37.917083 -120.770837 223 12009ft 83kts
30-Dec-17 11:59 37.896512 -120.784490 223 12009ft 83kts
30-Dec-17 12:00 37.880072 -120.795226 222 12009ft 83kts
30-Dec-17 12:01 37.864169 -120.805451 222 12008ft 83kts
30-Dec-17 12:02 37.843355 -120.818736 222 12009ft 83kts
30-Dec-17 12:03 37.822625 -120.832054 222 12009ft 83kts
30-Dec-17 12:04 37.801881 -120.845505 222 12008ft 84kts
30-Dec-17 12:05 37.780772 -120.859113 223 12009ft 85kts
30-Dec-17 12:06 37.759380 -120.872968 222 12009ft 87kts
30-Dec-17 12:07 37.737828 -120.887081 223 12009ft 87kts
30-Dec-17 12:08 37.716352 -120.901198 223 12009ft 87kts
30-Dec-17 12:09 37.694897 -120.915326 223 12009ft 86kts
30-Dec-17 12:10 37.673089 -120.928980 220 12008ft 88kts
30-Dec-17 12:11 37.653393 -120.943691 220 12015ft 86kts
30-Dec-17 12:12 37.643002 -120.959609 295 12017ft 66kts
30-Dec-17 12:13 37.632702 -120.980444 243 12011ft 75kts
30-Dec-17 12:14 37.619392 -121.001079 255 12006ft 72kts
30-Dec-17 12:15 37.621779 -121.022894 269 12021ft 67kts
30-Dec-17 12:16 37.619648 -121.048162 269 11826ft 83kts
30-Dec-17 12:17 37.617218 -121.080092 267 11358ft 96kts
30-Dec-17 12:18 37.613791 -121.114692 266 10864ft 100kts
30-Dec-17 12:19 37.609967 -121.149982 265 10367ft 102kts
30-Dec-17 12:20 37.605973 -121.185561 265 9940ft 104kts
30-Dec-17 12:21 37.602176 -121.224493 264 9366ft 108kts
30-Dec-17 12:22 37.597579 -121.260906 264 8999ft 97kts
30-Dec-17 12:23 37.593506 -121.292150 264 9004ft 85kts
30-Dec-17 12:24 37.589752 -121.321058 264 9009ft 83kts
30-Dec-17 12:25 37.586006 -121.349938 264 9008ft 83kts
30-Dec-17 12:26 37.582338 -121.379019 265 9008ft 83kts
30-Dec-17 12:27 37.578949 -121.408038 265 9009ft 83kts
30-Dec-17 12:28 37.575558 -121.437059 264 8992ft 83kts
30-Dec-17 12:29 37.572131 -121.465880 264 8990ft 82kts
30-Dec-17 12:30 37.568750 -121.494470 264 8989ft 82kts
30-Dec-17 12:31 37.565351 -121.523077 264 9002ft 81kts
30-Dec-17 12:32 37.561935 -121.550934 264 9026ft 81kts
30-Dec-17 12:33 37.558538 -121.579278 264 9025ft 82kts
30-Dec-17 12:34 37.554804 -121.607782 263 9026ft 82kts
30-Dec-17 12:35 37.550715 -121.636166 263 9026ft 82kts
30-Dec-17 12:36 37.546669 -121.664635 263 9022ft 82kts
30-Dec-17 12:37 37.542369 -121.696809 263 8627ft 102kts
30-Dec-17 12:38 37.537844 -121.733245 263 8137ft 107kts
30-Dec-17 12:39 37.533418 -121.770455 263 7635ft 106kts
30-Dec-17 12:40 37.530525 -121.807686 272 7139ft 107kts
30-Dec-17 12:41 37.532355 -121.845466 273 6642ft 109kts
30-Dec-17 12:42 37.534321 -121.883898 273 6143ft 110kts
30-Dec-17 12:43 37.536148 -121.919993 273 6018ft 95kts
30-Dec-17 12:44 37.537827 -121.952968 273 6026ft 93kts
30-Dec-17 12:45 37.539594 -121.987604 273 5692ft 105kts
30-Dec-17 12:46 37.541541 -122.025295 273 5200ft 109kts
30-Dec-17 12:47 37.543592 -122.063902 273 4702ft 110kts
30-Dec-17 12:48 37.545839 -122.102559 273 4181ft 111kts
30-Dec-17 12:49 37.548276 -122.141915 273 3586ft 113kts
30-Dec-17 12:50 37.549133 -122.179429 269 3177ft 105kts
30-Dec-17 12:51 37.552465 -122.212408 281 2639ft 114kts
30-Dec-17 12:52 37.565587 -122.249438 303 1937ft 117kts
30-Dec-17 12:53 37.582979 -122.283204 299 1326ft 114kts
30-Dec-17 12:54 37.597442 -122.319594 298 768ft 121kts
30-Dec-17 12:55 37.612076 -122.353644 298 116ft 80kts
30-Dec-17 12:56 37.617491 -122.366534 296 16ft 27kts
30-Dec-17 12:57 37.622704 -122.378920 299 16ft 38kts
30-Dec-17 12:58 37.625762 -122.381366 31 16ft 12kts
30-Dec-17 12:59 37.627962 -122.383795 295 16ft 16kts
30-Dec-17 13:00 37.628060 -122.384267 206 16ft 0kts
30-Dec-17 13:01 37.628060 -122.384267 206 16ft 0kts
30-Dec-17 13:02 37.628060 -122.384267 206 16ft 0kts
30-Dec-17 13:03 37.628060 -122.384267 206 16ft 0kts
30-Dec-17 13:04 37.628060 -122.384267 206 16ft 0kts
30-Dec-17 13:05 37.628060 -122.384267 206 16ft 0kts
30-Dec-17 13:06 37.628060 -122.384267 206 16ft 0kts
30-Dec-17 13:07 37.628060 -122.384267 206 16ft 0kts

Navigation Log

Ident Type
Flight plan parsing failed, navigation log unavailable